sensor_id;sensor_type;location;lat;lon;timestamp;P1;durP1;ratioP1;P2;durP2;ratioP2
80854;SDS011;70272;49.222;-122.892;2023-08-31T00:01:14;5.80;;;4.22;;
80854;SDS011;70272;49.222;-122.892;2023-08-31T00:03:40;6.63;;;3.90;;
80854;SDS011;70272;49.222;-122.892;2023-08-31T00:06:07;5.97;;;3.90;;
80854;SDS011;70272;49.222;-122.892;2023-08-31T00:08:33;6.13;;;4.20;;
80854;SDS011;70272;49.222;-122.892;2023-08-31T00:11:00;5.78;;;4.13;;
80854;SDS011;70272;49.222;-122.892;2023-08-31T00:13:27;7.25;;;4.55;;
80854;SDS011;70272;49.222;-122.892;2023-08-31T00:15:54;5.18;;;3.88;;
80854;SDS011;70272;49.222;-122.892;2023-08-31T00:18:22;7.32;;;4.40;;
80854;SDS011;70272;49.222;-122.892;2023-08-31T00:20:50;5.05;;;3.80;;
80854;SDS011;70272;49.222;-122.892;2023-08-31T00:23:16;6.10;;;3.75;;
80854;SDS011;70272;49.222;-122.892;2023-08-31T00:25:44;7.22;;;3.83;;
80854;SDS011;70272;49.222;-122.892;2023-08-31T00:28:13;4.93;;;3.60;;
80854;SDS011;70272;49.222;-122.892;2023-08-31T00:30:41;6.57;;;3.72;;
80854;SDS011;70272;49.222;-122.892;2023-08-31T00:33:10;6.35;;;4.05;;
80854;SDS011;70272;49.222;-122.892;2023-08-31T00:35:37;6.97;;;3.80;;
80854;SDS011;70272;49.222;-122.892;2023-08-31T00:38:09;6.15;;;3.80;;
80854;SDS011;70272;49.222;-122.892;2023-08-31T00:40:38;5.38;;;3.95;;
80854;SDS011;70272;49.222;-122.892;2023-08-31T00:43:07;5.65;;;3.88;;
80854;SDS011;70272;49.222;-122.892;2023-08-31T00:45:34;5.25;;;3.80;;
80854;SDS011;70272;49.222;-122.892;2023-08-31T00:48:00;6.10;;;4.75;;
80854;SDS011;70272;49.222;-122.892;2023-08-31T00:50:26;5.88;;;3.70;;
80854;SDS011;70272;49.222;-122.892;2023-08-31T00:52:53;6.28;;;3.85;;
80854;SDS011;70272;49.222;-122.892;2023-08-31T00:55:19;6.18;;;4.13;;
80854;SDS011;70272;49.222;-122.892;2023-08-31T00:57:45;6.32;;;3.90;;
80854;SDS011;70272;49.222;-122.892;2023-08-31T01:00:12;5.90;;;4.10;;
80854;SDS011;70272;49.222;-122.892;2023-08-31T01:02:46;6.32;;;4.07;;
80854;SDS011;70272;49.222;-122.892;2023-08-31T01:05:52;6.75;;;4.30;;
80854;SDS011;70272;49.222;-122.892;2023-08-31T01:08:29;4.47;;;3.60;;
80854;SDS011;70272;49.222;-122.892;2023-08-31T01:11:07;4.80;;;3.33;;
80854;SDS011;70272;49.222;-122.892;2023-08-31T01:13:44;6.22;;;4.20;;
80854;SDS011;70272;49.222;-122.892;2023-08-31T01:16:17;5.65;;;4.00;;
80854;SDS011;70272;49.222;-122.892;2023-08-31T01:18:45;5.53;;;3.80;;
80854;SDS011;70272;49.222;-122.892;2023-08-31T01:21:20;6.45;;;3.95;;
80854;SDS011;70272;49.222;-122.892;2023-08-31T01:23:54;5.32;;;4.10;;
80854;SDS011;70272;49.222;-122.892;2023-08-31T01:26:21;8.00;;;4.15;;
80854;SDS011;70272;49.222;-122.892;2023-08-31T01:28:48;5.93;;;4.15;;
80854;SDS011;70272;49.222;-122.892;2023-08-31T01:31:15;6.63;;;4.30;;
80854;SDS011;70272;49.222;-122.892;2023-08-31T01:33:41;5.68;;;4.32;;
80854;SDS011;70272;49.222;-122.892;2023-08-31T01:36:12;5.47;;;4.15;;
80854;SDS011;70272;49.222;-122.892;2023-08-31T01:38:56;6.72;;;4.43;;
80854;SDS011;70272;49.222;-122.892;2023-08-31T01:41:28;6.57;;;4.32;;
80854;SDS011;70272;49.222;-122.892;2023-08-31T01:43:55;7.32;;;4.53;;
80854;SDS011;70272;49.222;-122.892;2023-08-31T01:46:21;6.75;;;4.57;;
80854;SDS011;70272;49.222;-122.892;2023-08-31T01:48:48;6.70;;;4.40;;
80854;SDS011;70272;49.222;-122.892;2023-08-31T01:51:15;5.90;;;4.50;;
80854;SDS011;70272;49.222;-122.892;2023-08-31T01:53:42;6.57;;;4.50;;
80854;SDS011;70272;49.222;-122.892;2023-08-31T01:56:09;6.93;;;4.55;;
80854;SDS011;70272;49.222;-122.892;2023-08-31T01:58:36;6.28;;;4.53;;
80854;SDS011;70272;49.222;-122.892;2023-08-31T02:01:02;5.93;;;4.45;;
80854;SDS011;70272;49.222;-122.892;2023-08-31T02:03:28;7.32;;;5.03;;
80854;SDS011;70272;49.222;-122.892;2023-08-31T02:05:54;6.28;;;4.40;;
80854;SDS011;70272;49.222;-122.892;2023-08-31T02:08:21;6.18;;;4.43;;
80854;SDS011;70272;49.222;-122.892;2023-08-31T02:10:47;6.55;;;4.47;;
80854;SDS011;70272;49.222;-122.892;2023-08-31T02:13:14;7.20;;;4.50;;
80854;SDS011;70272;49.222;-122.892;2023-08-31T02:15:41;6.78;;;4.63;;
80854;SDS011;70272;49.222;-122.892;2023-08-31T02:18:08;6.50;;;4.55;;
80854;SDS011;70272;49.222;-122.892;2023-08-31T02:20:34;7.22;;;4.70;;
80854;SDS011;70272;49.222;-122.892;2023-08-31T02:23:00;7.20;;;4.63;;
80854;SDS011;70272;49.222;-122.892;2023-08-31T02:25:26;7.47;;;5.45;;
80854;SDS011;70272;49.222;-122.892;2023-08-31T02:27:56;9.95;;;4.97;;
80854;SDS011;70272;49.222;-122.892;2023-08-31T02:30:22;7.53;;;5.13;;
80854;SDS011;70272;49.222;-122.892;2023-08-31T02:32:48;7.40;;;4.72;;
80854;SDS011;70272;49.222;-122.892;2023-08-31T02:35:15;7.95;;;5.10;;
80854;SDS011;70272;49.222;-122.892;2023-08-31T02:37:41;6.72;;;4.35;;
80854;SDS011;70272;49.222;-122.892;2023-08-31T02:40:07;7.82;;;4.60;;
80854;SDS011;70272;49.222;-122.892;2023-08-31T02:42:34;6.60;;;4.78;;
80854;SDS011;70272;49.222;-122.892;2023-08-31T02:45:00;8.50;;;5.30;;
80854;SDS011;70272;49.222;-122.892;2023-08-31T02:47:28;10.45;;;5.30;;
80854;SDS011;70272;49.222;-122.892;2023-08-31T02:49:54;6.13;;;4.65;;
80854;SDS011;70272;49.222;-122.892;2023-08-31T02:52:20;7.20;;;4.63;;
80854;SDS011;70272;49.222;-122.892;2023-08-31T02:54:46;6.88;;;4.63;;
80854;SDS011;70272;49.222;-122.892;2023-08-31T02:57:12;6.25;;;4.60;;
80854;SDS011;70272;49.222;-122.892;2023-08-31T02:59:40;8.52;;;5.13;;
80854;SDS011;70272;49.222;-122.892;2023-08-31T03:02:07;8.70;;;5.45;;
80854;SDS011;70272;49.222;-122.892;2023-08-31T03:04:34;7.97;;;5.53;;
80854;SDS011;70272;49.222;-122.892;2023-08-31T03:07:00;9.45;;;4.93;;
80854;SDS011;70272;49.222;-122.892;2023-08-31T03:09:26;6.78;;;4.65;;
80854;SDS011;70272;49.222;-122.892;2023-08-31T03:11:52;7.38;;;5.22;;
80854;SDS011;70272;49.222;-122.892;2023-08-31T03:14:18;8.40;;;5.13;;
80854;SDS011;70272;49.222;-122.892;2023-08-31T03:16:45;8.18;;;5.25;;
80854;SDS011;70272;49.222;-122.892;2023-08-31T03:19:11;10.88;;;5.13;;
80854;SDS011;70272;49.222;-122.892;2023-08-31T03:21:37;6.80;;;4.75;;
80854;SDS011;70272;49.222;-122.892;2023-08-31T03:24:03;7.43;;;4.88;;
80854;SDS011;70272;49.222;-122.892;2023-08-31T03:26:30;8.23;;;5.00;;
80854;SDS011;70272;49.222;-122.892;2023-08-31T03:28:56;7.18;;;4.82;;
80854;SDS011;70272;49.222;-122.892;2023-08-31T03:31:23;6.88;;;5.03;;
80854;SDS011;70272;49.222;-122.892;2023-08-31T03:33:49;7.40;;;5.22;;
80854;SDS011;70272;49.222;-122.892;2023-08-31T03:36:16;9.82;;;5.35;;
80854;SDS011;70272;49.222;-122.892;2023-08-31T03:38:42;6.55;;;4.88;;
80854;SDS011;70272;49.222;-122.892;2023-08-31T03:41:09;9.57;;;6.53;;
80854;SDS011;70272;49.222;-122.892;2023-08-31T03:43:35;8.65;;;5.88;;
80854;SDS011;70272;49.222;-122.892;2023-08-31T03:46:01;8.55;;;5.40;;
80854;SDS011;70272;49.222;-122.892;2023-08-31T03:48:27;10.65;;;6.43;;
80854;SDS011;70272;49.222;-122.892;2023-08-31T03:50:54;8.27;;;5.10;;
80854;SDS011;70272;49.222;-122.892;2023-08-31T03:53:21;8.05;;;5.50;;
80854;SDS011;70272;49.222;-122.892;2023-08-31T03:55:47;7.22;;;4.90;;
80854;SDS011;70272;49.222;-122.892;2023-08-31T03:58:13;8.05;;;5.40;;
80854;SDS011;70272;49.222;-122.892;2023-08-31T04:00:40;7.85;;;5.13;;
80854;SDS011;70272;49.222;-122.892;2023-08-31T04:03:07;9.05;;;5.25;;
80854;SDS011;70272;49.222;-122.892;2023-08-31T04:05:34;7.30;;;5.53;;
80854;SDS011;70272;49.222;-122.892;2023-08-31T04:08:01;7.60;;;5.40;;
80854;SDS011;70272;49.222;-122.892;2023-08-31T04:10:30;8.70;;;6.05;;
80854;SDS011;70272;49.222;-122.892;2023-08-31T04:12:57;11.23;;;5.32;;
80854;SDS011;70272;49.222;-122.892;2023-08-31T04:15:24;8.10;;;5.35;;
80854;SDS011;70272;49.222;-122.892;2023-08-31T04:17:50;7.80;;;5.25;;
80854;SDS011;70272;49.222;-122.892;2023-08-31T04:20:17;7.32;;;5.10;;
80854;SDS011;70272;49.222;-122.892;2023-08-31T04:22:43;9.02;;;5.38;;
80854;SDS011;70272;49.222;-122.892;2023-08-31T04:25:09;8.40;;;5.43;;
80854;SDS011;70272;49.222;-122.892;2023-08-31T04:27:35;7.80;;;5.35;;
80854;SDS011;70272;49.222;-122.892;2023-08-31T04:30:04;7.60;;;5.25;;
80854;SDS011;70272;49.222;-122.892;2023-08-31T04:32:32;7.35;;;5.05;;
80854;SDS011;70272;49.222;-122.892;2023-08-31T04:34:58;6.35;;;4.65;;
80854;SDS011;70272;49.222;-122.892;2023-08-31T04:37:24;6.90;;;4.68;;
80854;SDS011;70272;49.222;-122.892;2023-08-31T04:39:51;7.78;;;5.07;;
80854;SDS011;70272;49.222;-122.892;2023-08-31T04:42:17;8.80;;;5.30;;
80854;SDS011;70272;49.222;-122.892;2023-08-31T04:44:44;7.25;;;4.80;;
80854;SDS011;70272;49.222;-122.892;2023-08-31T04:47:10;8.15;;;4.75;;
80854;SDS011;70272;49.222;-122.892;2023-08-31T04:49:37;7.78;;;4.95;;
80854;SDS011;70272;49.222;-122.892;2023-08-31T04:52:03;6.82;;;4.95;;
80854;SDS011;70272;49.222;-122.892;2023-08-31T04:54:29;7.43;;;4.82;;
80854;SDS011;70272;49.222;-122.892;2023-08-31T04:56:56;8.85;;;5.30;;
80854;SDS011;70272;49.222;-122.892;2023-08-31T04:59:22;6.53;;;4.90;;
80854;SDS011;70272;49.222;-122.892;2023-08-31T05:01:48;9.23;;;5.72;;
80854;SDS011;70272;49.222;-122.892;2023-08-31T05:04:14;7.00;;;4.90;;
80854;SDS011;70272;49.222;-122.892;2023-08-31T05:06:40;7.72;;;4.88;;
80854;SDS011;70272;49.222;-122.892;2023-08-31T05:09:07;7.70;;;5.28;;
80854;SDS011;70272;49.222;-122.892;2023-08-31T05:11:35;8.23;;;5.32;;
80854;SDS011;70272;49.222;-122.892;2023-08-31T05:14:01;8.35;;;5.03;;
80854;SDS011;70272;49.222;-122.892;2023-08-31T05:16:27;8.35;;;5.45;;
80854;SDS011;70272;49.222;-122.892;2023-08-31T05:18:54;8.15;;;5.43;;
80854;SDS011;70272;49.222;-122.892;2023-08-31T05:21:20;7.95;;;5.32;;
80854;SDS011;70272;49.222;-122.892;2023-08-31T05:23:46;10.63;;;5.60;;
80854;SDS011;70272;49.222;-122.892;2023-08-31T05:26:13;9.43;;;5.65;;
80854;SDS011;70272;49.222;-122.892;2023-08-31T05:28:40;9.27;;;5.40;;
80854;SDS011;70272;49.222;-122.892;2023-08-31T05:31:08;8.90;;;5.97;;
80854;SDS011;70272;49.222;-122.892;2023-08-31T05:33:34;7.53;;;5.32;;
80854;SDS011;70272;49.222;-122.892;2023-08-31T05:36:04;8.43;;;5.82;;
80854;SDS011;70272;49.222;-122.892;2023-08-31T05:38:30;8.00;;;5.45;;
80854;SDS011;70272;49.222;-122.892;2023-08-31T05:41:03;8.75;;;5.70;;
80854;SDS011;70272;49.222;-122.892;2023-08-31T05:43:32;8.40;;;5.75;;
80854;SDS011;70272;49.222;-122.892;2023-08-31T05:45:59;9.00;;;6.00;;
80854;SDS011;70272;49.222;-122.892;2023-08-31T05:48:25;8.32;;;5.40;;
80854;SDS011;70272;49.222;-122.892;2023-08-31T05:50:51;7.90;;;5.30;;
80854;SDS011;70272;49.222;-122.892;2023-08-31T05:53:19;9.15;;;5.95;;
80854;SDS011;70272;49.222;-122.892;2023-08-31T05:55:45;8.05;;;5.50;;
80854;SDS011;70272;49.222;-122.892;2023-08-31T05:58:11;7.85;;;5.32;;
80854;SDS011;70272;49.222;-122.892;2023-08-31T06:00:37;8.23;;;5.90;;
80854;SDS011;70272;49.222;-122.892;2023-08-31T06:03:04;8.05;;;5.65;;
80854;SDS011;70272;49.222;-122.892;2023-08-31T06:05:31;8.60;;;5.45;;
80854;SDS011;70272;49.222;-122.892;2023-08-31T06:07:58;9.40;;;6.10;;
80854;SDS011;70272;49.222;-122.892;2023-08-31T06:10:25;9.68;;;6.03;;
80854;SDS011;70272;49.222;-122.892;2023-08-31T06:12:51;8.77;;;6.05;;
80854;SDS011;70272;49.222;-122.892;2023-08-31T06:15:17;8.20;;;5.75;;
80854;SDS011;70272;49.222;-122.892;2023-08-31T06:17:44;11.57;;;6.00;;
80854;SDS011;70272;49.222;-122.892;2023-08-31T06:20:10;7.78;;;5.32;;
80854;SDS011;70272;49.222;-122.892;2023-08-31T06:22:37;8.70;;;5.70;;
80854;SDS011;70272;49.222;-122.892;2023-08-31T06:25:03;7.72;;;5.28;;
80854;SDS011;70272;49.222;-122.892;2023-08-31T06:27:30;7.07;;;5.45;;
80854;SDS011;70272;49.222;-122.892;2023-08-31T06:29:57;9.48;;;6.18;;
80854;SDS011;70272;49.222;-122.892;2023-08-31T06:32:23;9.50;;;6.18;;
80854;SDS011;70272;49.222;-122.892;2023-08-31T06:34:49;8.23;;;5.95;;
80854;SDS011;70272;49.222;-122.892;2023-08-31T06:37:15;7.63;;;5.85;;
80854;SDS011;70272;49.222;-122.892;2023-08-31T06:39:42;10.07;;;5.93;;
80854;SDS011;70272;49.222;-122.892;2023-08-31T06:42:08;7.78;;;5.63;;
80854;SDS011;70272;49.222;-122.892;2023-08-31T06:44:34;8.13;;;5.75;;
80854;SDS011;70272;49.222;-122.892;2023-08-31T06:47:00;9.73;;;6.20;;
80854;SDS011;70272;49.222;-122.892;2023-08-31T06:49:28;10.10;;;6.00;;
80854;SDS011;70272;49.222;-122.892;2023-08-31T06:51:57;9.27;;;6.00;;
80854;SDS011;70272;49.222;-122.892;2023-08-31T06:54:25;9.60;;;6.03;;
80854;SDS011;70272;49.222;-122.892;2023-08-31T06:56:51;8.57;;;6.05;;
80854;SDS011;70272;49.222;-122.892;2023-08-31T06:59:17;8.73;;;5.53;;
80854;SDS011;70272;49.222;-122.892;2023-08-31T07:01:43;7.30;;;5.57;;
80854;SDS011;70272;49.222;-122.892;2023-08-31T07:04:10;9.43;;;6.50;;
80854;SDS011;70272;49.222;-122.892;2023-08-31T07:06:37;8.45;;;5.68;;
80854;SDS011;70272;49.222;-122.892;2023-08-31T07:09:04;9.50;;;5.68;;
80854;SDS011;70272;49.222;-122.892;2023-08-31T07:11:34;10.05;;;6.53;;
80854;SDS011;70272;49.222;-122.892;2023-08-31T07:14:00;8.88;;;6.20;;
80854;SDS011;70272;49.222;-122.892;2023-08-31T07:16:26;8.48;;;5.57;;
80854;SDS011;70272;49.222;-122.892;2023-08-31T07:18:52;7.90;;;5.50;;
80854;SDS011;70272;49.222;-122.892;2023-08-31T07:21:18;9.05;;;5.95;;
80854;SDS011;70272;49.222;-122.892;2023-08-31T07:23:45;7.75;;;5.18;;
80854;SDS011;70272;49.222;-122.892;2023-08-31T07:26:11;9.52;;;5.40;;
80854;SDS011;70272;49.222;-122.892;2023-08-31T07:28:37;8.00;;;5.18;;
80854;SDS011;70272;49.222;-122.892;2023-08-31T07:31:04;7.75;;;5.13;;
80854;SDS011;70272;49.222;-122.892;2023-08-31T07:33:31;10.50;;;5.40;;
80854;SDS011;70272;49.222;-122.892;2023-08-31T07:35:59;7.63;;;4.93;;
80854;SDS011;70272;49.222;-122.892;2023-08-31T07:38:26;9.07;;;5.05;;
80854;SDS011;70272;49.222;-122.892;2023-08-31T07:40:53;8.05;;;4.68;;
80854;SDS011;70272;49.222;-122.892;2023-08-31T07:43:19;8.75;;;5.15;;
80854;SDS011;70272;49.222;-122.892;2023-08-31T07:45:45;7.82;;;5.13;;
80854;SDS011;70272;49.222;-122.892;2023-08-31T07:48:11;7.25;;;5.28;;
80854;SDS011;70272;49.222;-122.892;2023-08-31T07:50:40;7.38;;;4.60;;
80854;SDS011;70272;49.222;-122.892;2023-08-31T07:53:07;7.70;;;5.20;;
80854;SDS011;70272;49.222;-122.892;2023-08-31T07:55:33;8.52;;;4.97;;
80854;SDS011;70272;49.222;-122.892;2023-08-31T07:58:00;8.07;;;5.15;;
80854;SDS011;70272;49.222;-122.892;2023-08-31T08:00:27;10.05;;;4.88;;
80854;SDS011;70272;49.222;-122.892;2023-08-31T08:02:53;8.65;;;5.07;;
80854;SDS011;70272;49.222;-122.892;2023-08-31T08:05:19;8.85;;;5.60;;
80854;SDS011;70272;49.222;-122.892;2023-08-31T08:07:46;7.90;;;4.90;;
80854;SDS011;70272;49.222;-122.892;2023-08-31T08:10:12;8.40;;;4.97;;
80854;SDS011;70272;49.222;-122.892;2023-08-31T08:12:40;7.90;;;5.07;;
80854;SDS011;70272;49.222;-122.892;2023-08-31T08:15:10;7.85;;;5.05;;
80854;SDS011;70272;49.222;-122.892;2023-08-31T08:17:37;8.40;;;5.25;;
80854;SDS011;70272;49.222;-122.892;2023-08-31T08:20:04;9.32;;;5.88;;
80854;SDS011;70272;49.222;-122.892;2023-08-31T08:22:32;9.23;;;5.82;;
80854;SDS011;70272;49.222;-122.892;2023-08-31T08:24:58;9.07;;;5.55;;
80854;SDS011;70272;49.222;-122.892;2023-08-31T08:27:25;8.98;;;6.35;;
80854;SDS011;70272;49.222;-122.892;2023-08-31T08:29:51;10.98;;;6.72;;
80854;SDS011;70272;49.222;-122.892;2023-08-31T08:32:17;9.43;;;5.70;;
80854;SDS011;70272;49.222;-122.892;2023-08-31T08:34:44;9.35;;;6.13;;
80854;SDS011;70272;49.222;-122.892;2023-08-31T08:37:12;9.10;;;6.28;;
80854;SDS011;70272;49.222;-122.892;2023-08-31T08:39:39;8.88;;;6.00;;
80854;SDS011;70272;49.222;-122.892;2023-08-31T08:42:05;9.38;;;5.50;;
80854;SDS011;70272;49.222;-122.892;2023-08-31T08:44:33;8.27;;;5.55;;
80854;SDS011;70272;49.222;-122.892;2023-08-31T08:47:01;9.07;;;5.97;;
80854;SDS011;70272;49.222;-122.892;2023-08-31T08:49:32;9.02;;;6.50;;
80854;SDS011;70272;49.222;-122.892;2023-08-31T08:52:01;9.25;;;6.20;;
80854;SDS011;70272;49.222;-122.892;2023-08-31T08:54:28;10.02;;;6.03;;
80854;SDS011;70272;49.222;-122.892;2023-08-31T08:56:54;9.60;;;6.50;;
80854;SDS011;70272;49.222;-122.892;2023-08-31T08:59:20;8.32;;;6.00;;
80854;SDS011;70272;49.222;-122.892;2023-08-31T09:01:46;9.65;;;6.65;;
80854;SDS011;70272;49.222;-122.892;2023-08-31T09:04:13;10.20;;;6.43;;
80854;SDS011;70272;49.222;-122.892;2023-08-31T09:06:40;10.52;;;6.53;;
80854;SDS011;70272;49.222;-122.892;2023-08-31T09:09:10;10.63;;;6.30;;
80854;SDS011;70272;49.222;-122.892;2023-08-31T09:11:36;9.95;;;6.25;;
80854;SDS011;70272;49.222;-122.892;2023-08-31T09:14:16;10.93;;;6.00;;
80854;SDS011;70272;49.222;-122.892;2023-08-31T09:16:47;8.90;;;6.22;;
80854;SDS011;70272;49.222;-122.892;2023-08-31T09:19:20;9.98;;;5.88;;
80854;SDS011;70272;49.222;-122.892;2023-08-31T09:21:55;9.65;;;6.40;;
80854;SDS011;70272;49.222;-122.892;2023-08-31T09:24:22;12.68;;;7.35;;
80854;SDS011;70272;49.222;-122.892;2023-08-31T09:26:56;9.73;;;6.82;;
80854;SDS011;70272;49.222;-122.892;2023-08-31T09:29:23;10.45;;;6.43;;
80854;SDS011;70272;49.222;-122.892;2023-08-31T09:31:49;10.00;;;7.10;;
80854;SDS011;70272;49.222;-122.892;2023-08-31T09:34:16;10.73;;;7.13;;
80854;SDS011;70272;49.222;-122.892;2023-08-31T09:36:44;8.13;;;5.95;;
80854;SDS011;70272;49.222;-122.892;2023-08-31T09:39:10;8.50;;;5.82;;
80854;SDS011;70272;49.222;-122.892;2023-08-31T09:41:53;9.10;;;6.13;;
80854;SDS011;70272;49.222;-122.892;2023-08-31T09:44:20;9.82;;;6.80;;
80854;SDS011;70272;49.222;-122.892;2023-08-31T09:46:47;8.27;;;6.10;;
80854;SDS011;70272;49.222;-122.892;2023-08-31T09:49:14;10.43;;;5.72;;
80854;SDS011;70272;49.222;-122.892;2023-08-31T09:51:44;8.95;;;6.00;;
80854;SDS011;70272;49.222;-122.892;2023-08-31T09:54:16;9.40;;;5.65;;
80854;SDS011;70272;49.222;-122.892;2023-08-31T09:56:44;9.77;;;5.80;;
80854;SDS011;70272;49.222;-122.892;2023-08-31T09:59:11;8.27;;;5.53;;
80854;SDS011;70272;49.222;-122.892;2023-08-31T10:01:39;8.38;;;5.90;;
80854;SDS011;70272;49.222;-122.892;2023-08-31T10:04:06;8.25;;;5.53;;
80854;SDS011;70272;49.222;-122.892;2023-08-31T10:06:40;9.15;;;5.72;;
80854;SDS011;70272;49.222;-122.892;2023-08-31T10:09:07;8.70;;;5.75;;
80854;SDS011;70272;49.222;-122.892;2023-08-31T10:11:40;8.00;;;5.50;;
80854;SDS011;70272;49.222;-122.892;2023-08-31T10:14:09;11.82;;;6.15;;
80854;SDS011;70272;49.222;-122.892;2023-08-31T10:16:38;8.02;;;5.35;;
80854;SDS011;70272;49.222;-122.892;2023-08-31T10:19:05;8.98;;;5.47;;
80854;SDS011;70272;49.222;-122.892;2023-08-31T10:21:32;11.20;;;6.10;;
80854;SDS011;70272;49.222;-122.892;2023-08-31T10:23:58;8.07;;;6.10;;
80854;SDS011;70272;49.222;-122.892;2023-08-31T10:26:30;10.77;;;6.35;;
80854;SDS011;70272;49.222;-122.892;2023-08-31T10:28:57;9.98;;;6.22;;
80854;SDS011;70272;49.222;-122.892;2023-08-31T10:31:28;9.85;;;5.80;;
80854;SDS011;70272;49.222;-122.892;2023-08-31T10:33:59;9.80;;;6.35;;
80854;SDS011;70272;49.222;-122.892;2023-08-31T10:39:13;10.75;;;6.53;;
80854;SDS011;70272;49.222;-122.892;2023-08-31T10:41:54;11.63;;;6.40;;
80854;SDS011;70272;49.222;-122.892;2023-08-31T10:44:21;9.82;;;5.90;;
80854;SDS011;70272;49.222;-122.892;2023-08-31T10:46:49;9.05;;;6.32;;
80854;SDS011;70272;49.222;-122.892;2023-08-31T10:49:17;10.32;;;6.00;;
80854;SDS011;70272;49.222;-122.892;2023-08-31T10:51:45;9.73;;;5.72;;
80854;SDS011;70272;49.222;-122.892;2023-08-31T10:54:31;10.65;;;5.82;;
80854;SDS011;70272;49.222;-122.892;2023-08-31T10:57:02;8.57;;;5.45;;
80854;SDS011;70272;49.222;-122.892;2023-08-31T10:59:43;10.00;;;5.85;;
80854;SDS011;70272;49.222;-122.892;2023-08-31T11:05:02;10.00;;;6.07;;
80854;SDS011;70272;49.222;-122.892;2023-08-31T11:07:32;9.98;;;5.97;;
80854;SDS011;70272;49.222;-122.892;2023-08-31T11:12:49;8.77;;;5.88;;
80854;SDS011;70272;49.222;-122.892;2023-08-31T11:15:20;7.97;;;5.60;;
80854;SDS011;70272;49.222;-122.892;2023-08-31T11:17:49;9.50;;;6.13;;
80854;SDS011;70272;49.222;-122.892;2023-08-31T11:20:20;8.82;;;5.88;;
80854;SDS011;70272;49.222;-122.892;2023-08-31T11:22:51;10.18;;;6.00;;
80854;SDS011;70272;49.222;-122.892;2023-08-31T11:25:20;9.32;;;6.05;;
80854;SDS011;70272;49.222;-122.892;2023-08-31T11:27:56;8.23;;;5.68;;
80854;SDS011;70272;49.222;-122.892;2023-08-31T11:30:28;11.30;;;6.50;;
80854;SDS011;70272;49.222;-122.892;2023-08-31T11:33:05;9.57;;;5.82;;
80854;SDS011;70272;49.222;-122.892;2023-08-31T11:35:33;10.27;;;6.03;;
80854;SDS011;70272;49.222;-122.892;2023-08-31T11:38:05;8.27;;;4.85;;
80854;SDS011;70272;49.222;-122.892;2023-08-31T11:40:31;8.10;;;5.78;;
80854;SDS011;70272;49.222;-122.892;2023-08-31T11:42:58;8.82;;;5.72;;
80854;SDS011;70272;49.222;-122.892;2023-08-31T11:45:32;10.18;;;6.30;;
80854;SDS011;70272;49.222;-122.892;2023-08-31T11:47:58;9.52;;;6.22;;
80854;SDS011;70272;49.222;-122.892;2023-08-31T11:50:24;8.80;;;5.70;;
80854;SDS011;70272;49.222;-122.892;2023-08-31T11:52:51;9.75;;;6.18;;
80854;SDS011;70272;49.222;-122.892;2023-08-31T11:55:18;9.13;;;5.85;;
80854;SDS011;70272;49.222;-122.892;2023-08-31T11:57:53;8.75;;;5.75;;
80854;SDS011;70272;49.222;-122.892;2023-08-31T12:00:20;8.40;;;5.68;;
80854;SDS011;70272;49.222;-122.892;2023-08-31T12:03:02;7.38;;;5.53;;
80854;SDS011;70272;49.222;-122.892;2023-08-31T12:05:44;9.27;;;5.45;;
80854;SDS011;70272;49.222;-122.892;2023-08-31T12:08:11;8.05;;;5.10;;
80854;SDS011;70272;49.222;-122.892;2023-08-31T12:10:40;9.50;;;6.50;;
80854;SDS011;70272;49.222;-122.892;2023-08-31T12:13:09;8.15;;;5.80;;
80854;SDS011;70272;49.222;-122.892;2023-08-31T12:15:36;9.93;;;5.68;;
80854;SDS011;70272;49.222;-122.892;2023-08-31T12:18:09;9.00;;;5.22;;
80854;SDS011;70272;49.222;-122.892;2023-08-31T12:20:46;8.52;;;5.38;;
80854;SDS011;70272;49.222;-122.892;2023-08-31T12:23:18;9.35;;;5.93;;
80854;SDS011;70272;49.222;-122.892;2023-08-31T12:28:14;8.40;;;5.75;;
80854;SDS011;70272;49.222;-122.892;2023-08-31T12:30:46;8.77;;;5.60;;
80854;SDS011;70272;49.222;-122.892;2023-08-31T12:33:17;9.80;;;5.68;;
80854;SDS011;70272;49.222;-122.892;2023-08-31T12:35:44;7.60;;;5.22;;
80854;SDS011;70272;49.222;-122.892;2023-08-31T12:38:10;8.18;;;5.53;;
80854;SDS011;70272;49.222;-122.892;2023-08-31T12:40:37;10.13;;;5.95;;
80854;SDS011;70272;49.222;-122.892;2023-08-31T12:43:06;8.23;;;5.70;;
80854;SDS011;70272;49.222;-122.892;2023-08-31T12:45:33;8.65;;;5.30;;
80854;SDS011;70272;49.222;-122.892;2023-08-31T12:47:59;7.93;;;5.18;;
80854;SDS011;70272;49.222;-122.892;2023-08-31T12:50:26;8.63;;;5.78;;
80854;SDS011;70272;49.222;-122.892;2023-08-31T12:52:52;8.55;;;5.28;;
80854;SDS011;70272;49.222;-122.892;2023-08-31T12:55:18;7.85;;;5.40;;
80854;SDS011;70272;49.222;-122.892;2023-08-31T12:57:45;8.38;;;5.00;;
80854;SDS011;70272;49.222;-122.892;2023-08-31T13:00:11;7.45;;;5.30;;
80854;SDS011;70272;49.222;-122.892;2023-08-31T13:02:41;8.15;;;5.35;;
80854;SDS011;70272;49.222;-122.892;2023-08-31T13:05:10;7.82;;;5.22;;
80854;SDS011;70272;49.222;-122.892;2023-08-31T13:07:37;8.48;;;5.38;;
80854;SDS011;70272;49.222;-122.892;2023-08-31T13:10:04;9.13;;;5.35;;
80854;SDS011;70272;49.222;-122.892;2023-08-31T13:12:32;7.53;;;5.25;;
80854;SDS011;70272;49.222;-122.892;2023-08-31T13:14:58;7.05;;;5.15;;
80854;SDS011;70272;49.222;-122.892;2023-08-31T13:17:25;8.07;;;5.57;;
80854;SDS011;70272;49.222;-122.892;2023-08-31T13:19:52;7.70;;;5.22;;
80854;SDS011;70272;49.222;-122.892;2023-08-31T13:22:19;10.45;;;5.75;;
80854;SDS011;70272;49.222;-122.892;2023-08-31T13:24:45;7.45;;;4.90;;
80854;SDS011;70272;49.222;-122.892;2023-08-31T13:27:12;8.40;;;5.85;;
80854;SDS011;70272;49.222;-122.892;2023-08-31T13:29:41;9.27;;;5.72;;
80854;SDS011;70272;49.222;-122.892;2023-08-31T13:32:08;8.18;;;5.60;;
80854;SDS011;70272;49.222;-122.892;2023-08-31T13:34:34;7.80;;;5.47;;
80854;SDS011;70272;49.222;-122.892;2023-08-31T13:37:02;11.27;;;6.68;;
80854;SDS011;70272;49.222;-122.892;2023-08-31T13:39:33;10.77;;;6.50;;
80854;SDS011;70272;49.222;-122.892;2023-08-31T13:42:05;8.90;;;6.30;;
80854;SDS011;70272;49.222;-122.892;2023-08-31T13:44:32;9.40;;;6.03;;
80854;SDS011;70272;49.222;-122.892;2023-08-31T13:46:59;9.35;;;6.63;;
80854;SDS011;70272;49.222;-122.892;2023-08-31T13:49:25;10.32;;;6.07;;
80854;SDS011;70272;49.222;-122.892;2023-08-31T13:51:51;8.32;;;6.25;;
80854;SDS011;70272;49.222;-122.892;2023-08-31T13:54:17;9.30;;;6.32;;
80854;SDS011;70272;49.222;-122.892;2023-08-31T13:56:44;10.90;;;9.80;;
80854;SDS011;70272;49.222;-122.892;2023-08-31T13:59:10;8.10;;;6.07;;
80854;SDS011;70272;49.222;-122.892;2023-08-31T14:01:36;12.68;;;10.63;;
80854;SDS011;70272;49.222;-122.892;2023-08-31T14:04:03;21.45;;;19.50;;
80854;SDS011;70272;49.222;-122.892;2023-08-31T14:06:29;22.27;;;20.33;;
80854;SDS011;70272;49.222;-122.892;2023-08-31T14:08:56;14.50;;;10.82;;
80854;SDS011;70272;49.222;-122.892;2023-08-31T14:11:22;15.98;;;13.02;;
80854;SDS011;70272;49.222;-122.892;2023-08-31T14:13:48;17.58;;;14.73;;
80854;SDS011;70272;49.222;-122.892;2023-08-31T14:16:14;24.42;;;19.33;;
80854;SDS011;70272;49.222;-122.892;2023-08-31T14:18:41;26.95;;;22.08;;
80854;SDS011;70272;49.222;-122.892;2023-08-31T14:21:09;16.55;;;9.63;;